sensor_id;sensor_type;location;lat;lon;timestamp;pressure;altitude;pressure_sealevel;temperature;humidity
26178;BME280;13924;47.670;10.310;2023-04-26T00:00:42;93780;;;3.3;100.0
26178;BME280;13924;47.670;10.310;2023-04-26T00:15:41;93780;;;3.3;100.0
26178;BME280;13924;47.670;10.310;2023-04-26T00:30:41;93770;;;3.5;100.0
26178;BME280;13924;47.670;10.310;2023-04-26T00:45:41;93780;;;3.5;100.0
26178;BME280;13924;47.670;10.310;2023-04-26T01:00:42;93780;;;3.6;100.0
26178;BME280;13924;47.670;10.310;2023-04-26T01:01:37;93780;;;3.6;100.0
26178;BME280;13924;47.670;10.310;2023-04-26T01:15:44;93790;;;3.6;100.0
26178;BME280;13924;47.670;10.310;2023-04-26T01:30:43;93800;;;3.8;100.0
26178;BME280;13924;47.670;10.310;2023-04-26T01:45:45;93790;;;3.9;100.0
26178;BME280;13924;47.670;10.310;2023-04-26T02:00:45;93800;;;4.0;100.0
26178;BME280;13924;47.670;10.310;2023-04-26T02:15:47;93810;;;4.0;100.0
26178;BME280;13924;47.670;10.310;2023-04-26T02:30:45;93800;;;4.0;100.0
26178;BME280;13924;47.670;10.310;2023-04-26T02:45:46;93790;;;4.1;100.0
26178;BME280;13924;47.670;10.310;2023-04-26T03:00:47;93790;;;4.2;100.0
26178;BME280;13924;47.670;10.310;2023-04-26T03:15:48;93790;;;4.3;100.0
26178;BME280;13924;47.670;10.310;2023-04-26T03:30:48;93780;;;4.1;100.0
26178;BME280;13924;47.670;10.310;2023-04-26T03:45:51;93790;;;4.1;100.0
26178;BME280;13924;47.670;10.310;2023-04-26T04:00:50;93810;;;4.1;100.0
26178;BME280;13924;47.670;10.310;2023-04-26T04:13:07;93810;;;4.1;100.0
26178;BME280;13924;47.670;10.310;2023-04-26T04:28:08;93810;;;4.1;100.0
26178;BME280;13924;47.670;10.310;2023-04-26T04:43:08;93820;;;4.1;100.0
26178;BME280;13924;47.670;10.310;2023-04-26T04:58:09;93810;;;4.3;100.0
26178;BME280;13924;47.670;10.310;2023-04-26T05:13:09;93820;;;4.5;100.0
26178;BME280;13924;47.670;10.310;2023-04-26T05:28:10;93820;;;4.7;100.0
26178;BME280;13924;47.670;10.310;2023-04-26T05:43:10;93830;;;4.9;100.0
26178;BME280;13924;47.670;10.310;2023-04-26T05:58:11;93790;;;5.0;100.0
26178;BME280;13924;47.670;10.310;2023-04-26T06:13:12;93780;;;5.1;100.0
26178;BME280;13924;47.670;10.310;2023-04-26T06:28:13;93700;;;5.3;100.0
26178;BME280;13924;47.670;10.310;2023-04-26T06:43:13;93710;;;5.3;100.0
26178;BME280;13924;47.670;10.310;2023-04-26T06:58:13;93710;;;5.4;100.0
26178;BME280;13924;47.670;10.310;2023-04-26T07:13:14;93630;;;5.6;100.0
26178;BME280;13924;47.670;10.310;2023-04-26T07:28:15;93540;;;6.2;100.0
26178;BME280;13924;47.670;10.310;2023-04-26T07:43:16;93470;;;6.7;100.0
26178;BME280;13924;47.670;10.310;2023-04-26T07:58:16;93370;;;6.9;100.0
26178;BME280;13924;47.670;10.310;2023-04-26T08:13:17;93320;;;7.3;100.0
26178;BME280;13924;47.670;10.310;2023-04-26T08:28:18;93290;;;7.7;100.0
26178;BME280;13924;47.670;10.310;2023-04-26T08:43:18;93230;;;8.0;100.0
26178;BME280;13924;47.670;10.310;2023-04-26T08:58:19;93230;;;7.9;100.0
26178;BME280;13924;47.670;10.310;2023-04-26T09:13:26;93210;;;7.8;100.0
26178;BME280;13924;47.670;10.310;2023-04-26T09:28:22;93210;;;8.0;100.0
26178;BME280;13924;47.670;10.310;2023-04-26T09:43:22;93200;;;8.3;100.0
26178;BME280;13924;47.670;10.310;2023-04-26T09:58:21;93180;;;9.4;100.0
26178;BME280;13924;47.670;10.310;2023-04-26T10:13:23;93180;;;10.1;100.0
26178;BME280;13924;47.670;10.310;2023-04-26T10:28:53;93150;;;9.2;100.0
26178;BME280;13924;47.670;10.310;2023-04-26T10:43:27;93160;;;9.6;100.0
26178;BME280;13924;47.670;10.310;2023-04-26T10:58:25;93130;;;9.7;100.0
26178;BME280;13924;47.670;10.310;2023-04-26T11:13:25;93120;;;10.1;100.0
26178;BME280;13924;47.670;10.310;2023-04-26T11:28:26;93110;;;11.3;100.0
26178;BME280;13924;47.670;10.310;2023-04-26T11:43:33;93120;;;10.6;100.0
26178;BME280;13924;47.670;10.310;2023-04-26T11:58:27;93110;;;11.6;100.0
26178;BME280;13924;47.670;10.310;2023-04-26T12:13:28;93100;;;12.1;100.0
26178;BME280;13924;47.670;10.310;2023-04-26T12:28:28;93100;;;12.2;99.6
26178;BME280;13924;47.670;10.310;2023-04-26T12:43:30;93100;;;12.1;98.8
26178;BME280;13924;47.670;10.310;2023-04-26T12:58:30;93090;;;12.6;84.2
26178;BME280;13924;47.670;10.310;2023-04-26T13:13:30;93080;;;12.1;87.0
26178;BME280;13924;47.670;10.310;2023-04-26T13:28:36;93070;;;12.8;85.2
26178;BME280;13924;47.670;10.310;2023-04-26T13:43:32;93060;;;14.1;80.5
26178;BME280;13924;47.670;10.310;2023-04-26T13:58:34;93060;;;13.3;87.0
26178;BME280;13924;47.670;10.310;2023-04-26T14:13:35;93060;;;13.3;87.0
26178;BME280;13924;47.670;10.310;2023-04-26T14:28:35;93060;;;12.4;81.5
26178;BME280;13924;47.670;10.310;2023-04-26T14:43:36;93050;;;12.4;95.7
26178;BME280;13924;47.670;10.310;2023-04-26T14:58:35;93040;;;12.7;89.2
26178;BME280;13924;47.670;10.310;2023-04-26T15:13:37;93020;;;13.1;92.7
26178;BME280;13924;47.670;10.310;2023-04-26T15:28:36;93030;;;12.8;93.6
26178;BME280;13924;47.670;10.310;2023-04-26T15:43:36;93040;;;12.9;87.7
26178;BME280;13924;47.670;10.310;2023-04-26T15:58:37;93050;;;12.4;95.0
26178;BME280;13924;47.670;10.310;2023-04-26T16:13:39;93050;;;12.0;100.0
26178;BME280;13924;47.670;10.310;2023-04-26T16:28:39;93060;;;12.4;90.4
26178;BME280;13924;47.670;10.310;2023-04-26T16:43:40;93060;;;11.9;97.3
26178;BME280;13924;47.670;10.310;2023-04-26T16:58:41;93060;;;11.3;100.0
26178;BME280;13924;47.670;10.310;2023-04-26T17:13:41;93080;;;11.0;100.0
26178;BME280;13924;47.670;10.310;2023-04-26T17:28:42;93100;;;10.8;100.0
26178;BME280;13924;47.670;10.310;2023-04-26T17:43:43;93110;;;10.6;100.0
26178;BME280;13924;47.670;10.310;2023-04-26T17:58:43;93110;;;10.3;100.0
26178;BME280;13924;47.670;10.310;2023-04-26T18:13:46;93110;;;10.3;100.0
26178;BME280;13924;47.670;10.310;2023-04-26T18:28:51;93120;;;10.2;100.0
26178;BME280;13924;47.670;10.310;2023-04-26T18:43:46;93130;;;9.9;100.0
26178;BME280;13924;47.670;10.310;2023-04-26T18:58:52;93140;;;9.8;100.0
26178;BME280;13924;47.670;10.310;2023-04-26T19:13:52;93150;;;9.4;100.0
26178;BME280;13924;47.670;10.310;2023-04-26T19:28:48;93170;;;9.2;100.0
26178;BME280;13924;47.670;10.310;2023-04-26T19:43:54;93170;;;9.2;100.0
26178;BME280;13924;47.670;10.310;2023-04-26T19:58:51;93190;;;8.8;100.0
26178;BME280;13924;47.670;10.310;2023-04-26T20:13:50;93200;;;8.6;100.0
26178;BME280;13924;47.670;10.310;2023-04-26T20:28:51;93200;;;9.2;100.0
26178;BME280;13924;47.670;10.310;2023-04-26T20:43:50;93210;;;8.6;100.0
26178;BME280;13924;47.670;10.310;2023-04-26T20:58:51;93210;;;8.2;100.0
26178;BME280;13924;47.670;10.310;2023-04-26T21:13:56;93210;;;8.1;100.0
26178;BME280;13924;47.670;10.310;2023-04-26T21:28:52;93220;;;8.1;100.0
26178;BME280;13924;47.670;10.310;2023-04-26T21:43:53;93240;;;8.1;100.0
26178;BME280;13924;47.670;10.310;2023-04-26T21:58:54;93220;;;8.3;100.0
26178;BME280;13924;47.670;10.310;2023-04-26T22:00:45;93220;;;8.3;100.0
26178;BME280;13924;47.670;10.310;2023-04-26T22:15:38;93220;;;8.0;100.0
26178;BME280;13924;47.670;10.310;2023-04-26T22:30:39;93230;;;8.1;100.0
26178;BME280;13924;47.670;10.310;2023-04-26T22:45:38;93250;;;8.1;100.0
26178;BME280;13924;47.670;10.310;2023-04-26T23:00:39;93240;;;8.2;100.0
26178;BME280;13924;47.670;10.310;2023-04-26T23:15:39;93250;;;8.2;100.0
26178;BME280;13924;47.670;10.310;2023-04-26T23:30:40;93260;;;8.3;100.0
26178;BME280;13924;47.670;10.310;2023-04-26T23:45:42;93260;;;8.3;100.0
